createdAt,value
2023-02-05T00:02:28.239Z,13.93
2023-02-05T00:04:58.139Z,18.05
2023-02-05T00:07:26.701Z,15.48
2023-02-05T00:09:55.252Z,18.17
2023-02-05T00:12:23.798Z,17.70
2023-02-05T00:14:52.298Z,16.85
2023-02-05T00:17:20.895Z,13.45
2023-02-05T00:19:49.719Z,15.05
2023-02-05T00:22:19.671Z,13.15
2023-02-05T00:24:48.715Z,10.20
2023-02-05T00:27:17.738Z,13.38
2023-02-05T00:29:46.618Z,14.15
2023-02-05T00:32:15.402Z,9.85
2023-02-05T00:34:43.988Z,15.48
2023-02-05T00:37:12.595Z,15.32
2023-02-05T00:39:43.100Z,18.52
2023-02-05T00:42:12.053Z,14.55
2023-02-05T00:44:40.837Z,15.73
2023-02-05T00:47:09.401Z,14.63
2023-02-05T00:49:38.001Z,15.35
2023-02-05T00:52:06.953Z,15.82
2023-02-05T00:54:35.498Z,18.65
2023-02-05T00:57:05.461Z,17.20
2023-02-05T00:59:34.076Z,13.55
2023-02-05T01:02:02.652Z,13.48
2023-02-05T01:04:31.255Z,13.52
2023-02-05T01:06:59.820Z,16.38
2023-02-05T01:09:28.460Z,17.15
2023-02-05T01:11:56.994Z,19.77
2023-02-05T01:14:26.921Z,15.27
2023-02-05T01:16:55.454Z,14.00
2023-02-05T01:19:24.013Z,17.10
2023-02-05T01:21:52.616Z,22.25
2023-02-05T01:24:21.182Z,21.75
2023-02-05T01:26:49.758Z,18.65
2023-02-05T01:29:18.277Z,16.73
2023-02-05T01:31:48.782Z,15.55
2023-02-05T01:34:17.470Z,15.93
2023-02-05T01:36:46.413Z,13.60
2023-02-05T01:39:15.058Z,18.10
2023-02-05T01:41:46.479Z,13.68
2023-02-05T01:44:24.452Z,17.58
2023-02-05T01:46:56.071Z,18.50
2023-02-05T01:49:28.751Z,16.65
2023-02-05T01:52:00.860Z,18.65
2023-02-05T01:54:35.237Z,16.33
2023-02-05T01:57:07.671Z,16.77
2023-02-05T01:59:39.575Z,20.98
2023-02-05T02:02:09.545Z,19.40
2023-02-05T02:04:41.767Z,26.10
2023-02-05T02:07:12.908Z,16.45
2023-02-05T02:09:43.444Z,16.17
2023-02-05T02:12:14.625Z,15.27
2023-02-05T02:14:46.969Z,16.38
2023-02-05T02:17:18.112Z,20.85
2023-02-05T02:19:52.172Z,19.98
2023-02-05T02:22:50.191Z,17.13
2023-02-05T02:25:39.027Z,17.65
2023-02-05T02:28:12.380Z,19.83
2023-02-05T02:30:43.499Z,17.63
2023-02-05T02:33:20.126Z,17.63
2023-02-05T02:35:53.693Z,16.27
2023-02-05T02:38:28.864Z,16.05
2023-02-05T02:41:05.554Z,21.05
2023-02-05T02:43:40.759Z,21.75
2023-02-05T02:46:14.399Z,16.80
2023-02-05T02:48:43.345Z,19.15
2023-02-05T02:51:13.398Z,21.48
2023-02-05T02:53:48.370Z,16.10
2023-02-05T02:56:19.283Z,18.17
2023-02-05T02:58:54.258Z,23.40
2023-02-05T03:01:32.562Z,19.83
2023-02-05T03:04:05.604Z,18.17
2023-02-05T03:06:35.797Z,19.60
2023-02-05T03:09:12.113Z,20.38
2023-02-05T03:11:41.212Z,17.35
2023-02-05T03:14:12.200Z,17.17
2023-02-05T03:16:40.868Z,15.82
2023-02-05T03:19:09.821Z,17.55
2023-02-05T03:21:42.931Z,18.00
2023-02-05T03:24:11.999Z,17.13
2023-02-05T03:26:42.096Z,23.80
2023-02-05T03:29:27.624Z,23.15
2023-02-05T03:32:07.731Z,17.90
2023-02-05T03:34:45.390Z,21.92
2023-02-05T03:37:20.702Z,22.95
2023-02-05T03:40:02.799Z,23.92
2023-02-05T03:42:41.616Z,19.42
2023-02-05T03:45:27.123Z,18.35
2023-02-05T03:48:18.349Z,18.05
2023-02-05T03:50:55.094Z,21.60
2023-02-05T03:53:30.149Z,20.75
2023-02-05T03:56:05.515Z,19.40
2023-02-05T03:58:37.903Z,17.52
2023-02-05T04:01:11.535Z,20.27
2023-02-05T04:03:41.265Z,24.08
2023-02-05T04:06:10.116Z,19.40
2023-02-05T04:08:38.826Z,22.60
2023-02-05T04:11:09.453Z,24.92
2023-02-05T04:13:38.272Z,19.13
2023-02-05T04:16:10.895Z,20.25
2023-02-05T04:18:40.046Z,21.98
2023-02-05T04:21:08.878Z,19.40
2023-02-05T04:23:41.042Z,19.00
2023-02-05T04:26:10.255Z,22.13
2023-02-05T04:28:46.126Z,19.17
2023-02-05T04:31:16.237Z,16.83
2023-02-05T04:33:45.235Z,19.15
2023-02-05T04:36:16.123Z,19.95
2023-02-05T04:38:44.798Z,24.38
2023-02-05T04:41:13.421Z,20.45
2023-02-05T04:43:41.911Z,27.02
2023-02-05T04:46:11.764Z,19.95
2023-02-05T04:48:41.785Z,17.27
2023-02-05T04:51:12.717Z,15.43
2023-02-05T04:53:41.694Z,19.23
2023-02-05T04:56:11.871Z,17.85
2023-02-05T04:58:41.032Z,20.38
2023-02-05T05:01:13.711Z,21.67
2023-02-05T05:03:44.503Z,19.38
2023-02-05T05:06:13.578Z,23.70
2023-02-05T05:08:42.278Z,22.73
2023-02-05T05:11:12.866Z,22.42
2023-02-05T05:13:41.439Z,23.55
2023-02-05T05:16:11.543Z,18.83
2023-02-05T05:18:41.344Z,20.55
2023-02-05T05:21:11.560Z,21.67
2023-02-05T05:23:40.191Z,23.17
2023-02-05T05:26:12.824Z,22.15
2023-02-05T05:28:41.584Z,20.60
2023-02-05T05:31:11.709Z,25.10
2023-02-05T05:33:40.437Z,27.90
2023-02-05T05:36:10.951Z,24.20
2023-02-05T05:38:39.669Z,21.00
2023-02-05T05:41:26.213Z,27.33
2023-02-05T05:43:55.552Z,25.00
2023-02-05T05:46:26.292Z,25.60
2023-02-05T05:48:56.967Z,26.38
2023-02-05T05:51:28.474Z,23.77
2023-02-05T05:53:57.704Z,21.75
2023-02-05T05:56:26.316Z,24.55
2023-02-05T05:58:55.015Z,26.13
2023-02-05T06:01:23.558Z,24.92
2023-02-05T06:03:52.183Z,20.73
2023-02-05T06:06:20.855Z,19.30
2023-02-05T06:08:50.848Z,21.20
2023-02-05T06:11:19.372Z,25.88
2023-02-05T06:13:47.878Z,20.80
2023-02-05T06:16:16.925Z,24.35
2023-02-05T06:18:46.076Z,20.40
2023-02-05T06:21:14.714Z,21.00
2023-02-05T06:23:43.287Z,21.17
2023-02-05T06:26:13.470Z,19.88
2023-02-05T06:28:42.021Z,22.17
2023-02-05T06:31:11.160Z,22.08
2023-02-05T06:33:39.835Z,25.27
2023-02-05T06:36:09.092Z,18.15
2023-02-05T06:38:37.678Z,24.65
2023-02-05T06:41:06.327Z,27.10
2023-02-05T06:43:36.218Z,23.80
2023-02-05T06:46:05.045Z,28.10
2023-02-05T06:48:33.749Z,23.00
2023-02-05T06:51:02.296Z,28.17
2023-02-05T06:53:30.994Z,26.23
2023-02-05T06:55:59.879Z,28.63
2023-02-05T06:58:28.438Z,27.50
2023-02-05T07:00:58.512Z,28.33
2023-02-05T07:03:27.185Z,25.27
2023-02-05T07:05:55.855Z,23.50
2023-02-05T07:08:24.440Z,30.42
2023-02-05T07:10:52.940Z,30.55
2023-02-05T07:13:21.513Z,26.30
2023-02-05T07:15:50.212Z,29.00
2023-02-05T07:18:20.146Z,30.30
2023-02-05T07:20:49.172Z,27.83
2023-02-05T07:23:17.826Z,25.67
2023-02-05T07:25:46.412Z,28.88
2023-02-05T07:28:14.992Z,30.38
2023-02-05T07:30:43.675Z,34.40
2023-02-05T07:33:12.264Z,32.10
2023-02-05T07:35:42.238Z,31.00
2023-02-05T07:38:11.889Z,29.23
2023-02-05T07:40:40.397Z,32.30
2023-02-05T07:43:08.882Z,32.72
2023-02-05T07:45:37.654Z,35.75
2023-02-05T07:48:06.783Z,31.20
2023-02-05T07:50:35.390Z,36.42
2023-02-05T07:53:05.421Z,35.92
2023-02-05T07:55:35.720Z,35.28
2023-02-05T07:58:04.451Z,31.08
2023-02-05T08:00:32.994Z,34.75
2023-02-05T08:03:04.320Z,35.47
2023-02-05T08:05:33.532Z,33.97
2023-02-05T08:08:02.636Z,37.58
2023-02-05T08:10:32.826Z,30.27
2023-02-05T08:13:01.375Z,29.70
2023-02-05T08:15:30.065Z,31.85
2023-02-05T08:17:58.669Z,34.08
2023-02-05T08:20:27.206Z,33.38
2023-02-05T08:22:55.834Z,38.50
2023-02-05T08:25:24.613Z,34.47
2023-02-05T08:27:54.486Z,37.47
2023-02-05T08:30:23.463Z,37.72
2023-02-05T08:32:52.162Z,39.17
2023-02-05T08:35:20.752Z,38.25
2023-02-05T08:37:49.393Z,39.42
2023-02-05T08:40:19.693Z,39.88
2023-02-05T08:42:52.596Z,38.25
2023-02-05T08:45:22.525Z,36.63
2023-02-05T08:47:51.103Z,34.38
2023-02-05T08:50:20.777Z,31.80
2023-02-05T08:52:50.722Z,35.95
2023-02-05T08:55:19.481Z,33.28
2023-02-05T08:57:49.270Z,32.28
2023-02-05T09:00:18.235Z,34.35
2023-02-05T09:02:48.297Z,26.95
2023-02-05T09:05:17.184Z,26.70
2023-02-05T09:07:45.846Z,24.40
2023-02-05T09:10:14.778Z,20.95
2023-02-05T09:12:43.291Z,18.98
2023-02-05T09:15:11.988Z,19.20
2023-02-05T09:17:40.702Z,18.02
2023-02-05T09:20:12.157Z,17.17
2023-02-05T09:22:40.922Z,16.25
2023-02-05T09:25:10.266Z,17.48
2023-02-05T09:27:38.879Z,16.50
2023-02-05T09:30:08.104Z,16.20
2023-02-05T09:32:36.735Z,17.55
2023-02-05T09:35:05.375Z,15.13
2023-02-05T09:37:35.300Z,15.30
2023-02-05T09:40:21.307Z,8.52
2023-02-05T09:43:01.672Z,7.85
2023-02-05T09:45:39.556Z,5.07
2023-02-05T09:48:30.686Z,4.60
2023-02-05T09:51:00.259Z,3.88
2023-02-05T09:53:36.352Z,5.40
2023-02-05T09:56:08.023Z,4.55
2023-02-05T09:58:42.754Z,6.80
2023-02-05T10:01:19.189Z,5.63
2023-02-05T10:03:53.145Z,8.50
2023-02-05T10:06:47.975Z,9.18
2023-02-05T10:09:27.030Z,5.43
2023-02-05T10:12:03.549Z,4.63
2023-02-05T10:14:45.128Z,6.05
2023-02-05T10:17:30.322Z,8.68
2023-02-05T10:20:16.132Z,4.97
2023-02-05T10:22:56.507Z,3.03
2023-02-05T10:25:45.429Z,3.40
2023-02-05T10:28:29.126Z,4.18
2023-02-05T10:31:05.356Z,4.45
2023-02-05T10:33:48.033Z,4.97
2023-02-05T10:36:20.732Z,4.93
2023-02-05T10:38:51.390Z,2.05
2023-02-05T10:41:26.904Z,3.45
2023-02-05T10:44:02.729Z,1.60
2023-02-05T10:46:35.398Z,2.83
2023-02-05T10:49:09.820Z,5.50
2023-02-05T10:51:42.514Z,4.72
2023-02-05T10:54:21.686Z,3.13
2023-02-05T10:56:51.716Z,4.45
2023-02-05T10:59:25.865Z,3.83
2023-02-05T11:01:58.045Z,4.45
2023-02-05T11:04:34.645Z,5.80
2023-02-05T11:07:06.345Z,1.73
2023-02-05T11:09:35.843Z,6.07
2023-02-05T11:12:15.919Z,5.63
2023-02-05T11:14:46.792Z,5.00
2023-02-05T11:17:22.823Z,6.72
2023-02-05T11:19:55.762Z,5.78
2023-02-05T11:22:28.220Z,4.15
2023-02-05T11:25:08.706Z,4.85
2023-02-05T11:27:39.236Z,6.10
2023-02-05T11:30:49.689Z,7.85
2023-02-05T11:33:25.486Z,6.70
2023-02-05T11:35:57.424Z,6.18
2023-02-05T11:38:32.235Z,5.03
2023-02-05T11:41:03.149Z,4.10
2023-02-05T11:43:35.962Z,6.65
2023-02-05T11:46:08.310Z,6.35
2023-02-05T11:48:41.193Z,7.10
2023-02-05T11:51:12.614Z,6.05
2023-02-05T11:53:53.210Z,3.95
2023-02-05T11:56:25.343Z,7.20
2023-02-05T11:59:03.068Z,12.73
2023-02-05T12:01:34.991Z,7.43
2023-02-05T12:04:15.113Z,3.40
2023-02-05T12:06:47.836Z,5.20
2023-02-05T12:09:21.782Z,12.18
2023-02-05T12:12:03.745Z,10.40
2023-02-05T12:14:41.270Z,6.30
2023-02-05T12:17:26.522Z,9.30
2023-02-05T12:20:03.079Z,7.80
2023-02-05T12:22:56.118Z,5.15
2023-02-05T12:25:29.931Z,12.30
2023-02-05T12:28:13.478Z,10.75
2023-02-05T12:30:59.914Z,5.40
2023-02-05T12:33:45.126Z,6.20
2023-02-05T12:36:30.913Z,9.98
2023-02-05T12:39:10.350Z,9.05
2023-02-05T12:41:47.909Z,12.85
2023-02-05T12:44:31.901Z,11.02
2023-02-05T12:47:14.542Z,9.40
2023-02-05T12:50:04.607Z,13.38
2023-02-05T12:52:46.196Z,16.20
2023-02-05T12:55:28.505Z,8.07
2023-02-05T12:58:00.157Z,9.25
2023-02-05T13:00:34.012Z,11.40
2023-02-05T13:03:15.010Z,8.40
2023-02-05T13:05:49.291Z,12.32
2023-02-05T13:08:23.170Z,10.93
2023-02-05T13:10:55.606Z,16.13
2023-02-05T13:13:28.938Z,13.88
2023-02-05T13:16:02.382Z,10.80
2023-02-05T13:18:36.706Z,10.55
2023-02-05T13:21:26.268Z,11.40
2023-02-05T13:24:20.875Z,8.50
2023-02-05T13:27:07.465Z,6.97
2023-02-05T13:29:46.351Z,9.55
2023-02-05T13:32:17.409Z,10.05
2023-02-05T13:34:47.441Z,11.00
2023-02-05T13:37:42.754Z,16.08
2023-02-05T13:40:38.291Z,12.25
2023-02-05T13:43:48.744Z,8.45
2023-02-05T13:46:49.257Z,14.30
2023-02-05T13:49:50.241Z,11.93
2023-02-05T13:52:51.550Z,11.90
2023-02-05T13:55:43.806Z,11.82
2023-02-05T13:58:22.295Z,15.32
2023-02-05T14:00:57.584Z,13.60
2023-02-05T14:03:36.858Z,8.68
2023-02-05T14:06:15.681Z,8.57
2023-02-05T14:08:45.895Z,6.68
2023-02-05T14:11:14.762Z,7.28
2023-02-05T14:13:43.480Z,6.68
2023-02-05T14:16:35.293Z,7.35
2023-02-05T14:19:21.813Z,5.72
2023-02-05T14:22:03.478Z,6.93
2023-02-05T14:24:45.760Z,5.35
2023-02-05T14:27:47.541Z,8.60
2023-02-05T14:30:38.365Z,8.98
2023-02-05T14:33:36.520Z,9.93
2023-02-05T14:36:46.906Z,7.88
2023-02-05T14:39:26.856Z,6.55
2023-02-05T14:41:59.517Z,11.43
2023-02-05T14:44:30.819Z,8.00
2023-02-05T14:47:05.997Z,6.13
2023-02-05T14:49:41.853Z,7.72
2023-02-05T14:52:26.567Z,6.85
2023-02-05T14:55:00.315Z,5.25
2023-02-05T14:57:41.714Z,7.28
2023-02-05T15:00:25.774Z,6.00
2023-02-05T15:03:27.613Z,7.60
2023-02-05T15:06:01.754Z,7.60
2023-02-05T15:08:43.565Z,5.50
2023-02-05T15:11:21.895Z,10.18
2023-02-05T15:14:41.634Z,6.03
2023-02-05T15:17:51.988Z,5.65
2023-02-05T15:20:33.860Z,6.90
2023-02-05T15:23:16.553Z,6.28
2023-02-05T15:25:51.601Z,6.28
2023-02-05T15:28:26.959Z,6.38
2023-02-05T15:31:22.703Z,6.95
2023-02-05T15:33:59.590Z,6.45
2023-02-05T15:36:40.096Z,6.57
2023-02-05T15:39:19.671Z,8.75
2023-02-05T15:41:48.882Z,6.88
2023-02-05T15:44:23.054Z,10.73
2023-02-05T15:46:54.559Z,7.65
2023-02-05T15:49:30.299Z,10.18
2023-02-05T15:51:59.894Z,8.40
2023-02-05T15:54:29.406Z,7.40
2023-02-05T15:56:58.286Z,8.60
2023-02-05T15:59:28.955Z,9.23
2023-02-05T16:02:06.120Z,6.80
2023-02-05T16:04:37.286Z,8.32
2023-02-05T16:07:20.364Z,6.25
2023-02-05T16:09:52.762Z,7.75
2023-02-05T16:12:21.628Z,7.88
2023-02-05T16:14:59.572Z,5.72
2023-02-05T16:17:36.015Z,7.28
2023-02-05T16:20:21.246Z,8.00
2023-02-05T16:22:55.318Z,8.00
2023-02-05T16:25:36.770Z,11.82
2023-02-05T16:28:12.161Z,9.55
2023-02-05T16:30:43.686Z,5.55
2023-02-05T16:33:28.514Z,9.05
2023-02-05T16:35:59.913Z,6.20
2023-02-05T16:38:29.212Z,8.02
2023-02-05T16:41:01.083Z,11.95
2023-02-05T16:43:33.177Z,8.55
2023-02-05T16:46:28.590Z,12.43
2023-02-05T16:49:01.001Z,10.35
2023-02-05T16:51:53.658Z,9.55
2023-02-05T16:54:31.559Z,11.07
2023-02-05T16:57:07.223Z,9.75
2023-02-05T16:59:51.056Z,9.13
2023-02-05T17:02:29.194Z,9.27
2023-02-05T17:05:01.519Z,8.00
2023-02-05T17:07:31.115Z,9.80
2023-02-05T17:10:22.597Z,12.10
2023-02-05T17:13:01.079Z,7.55
2023-02-05T17:15:33.082Z,13.70
2023-02-05T17:18:06.501Z,12.98
2023-02-05T17:20:37.108Z,17.05
2023-02-05T17:23:13.783Z,9.73
2023-02-05T17:25:49.674Z,14.73
2023-02-05T17:28:21.045Z,19.52
2023-02-05T17:30:50.805Z,15.20
2023-02-05T17:33:21.966Z,9.73
2023-02-05T17:35:54.973Z,9.05
2023-02-05T17:43:05.517Z,8.65
2023-02-05T17:45:36.177Z,9.23
2023-02-05T17:48:05.329Z,16.55
2023-02-05T17:50:35.836Z,11.55
2023-02-05T17:53:06.155Z,12.95
2023-02-05T17:55:34.752Z,9.85
2023-02-05T17:58:03.313Z,11.05
2023-02-05T18:00:32.970Z,13.95
2023-02-05T18:03:01.662Z,17.45
2023-02-05T18:05:30.281Z,15.63
2023-02-05T18:08:00.059Z,13.48
2023-02-05T18:10:32.676Z,14.38
2023-02-05T18:13:01.568Z,14.55
2023-02-05T18:15:33.801Z,13.65
2023-02-05T18:18:02.602Z,12.77
2023-02-05T18:20:31.200Z,13.00
2023-02-05T18:23:00.243Z,18.65
2023-02-05T18:25:30.160Z,15.55
2023-02-05T18:27:58.734Z,9.98
2023-02-05T18:30:27.355Z,15.65
2023-02-05T18:32:56.031Z,12.82
2023-02-05T18:35:24.581Z,17.30
2023-02-05T18:37:53.064Z,10.77
2023-02-05T18:40:21.712Z,13.40
2023-02-05T18:42:53.821Z,11.68
2023-02-05T18:45:22.443Z,13.98
2023-02-05T18:47:50.913Z,13.98
2023-02-05T18:50:19.597Z,17.45
2023-02-05T18:52:48.339Z,11.68
2023-02-05T18:55:16.968Z,17.52
2023-02-05T18:57:45.560Z,9.48
2023-02-05T19:00:16.380Z,12.98
2023-02-05T19:02:45.618Z,18.45
2023-02-05T19:05:14.231Z,10.57
2023-02-05T19:07:44.776Z,17.85
2023-02-05T19:10:13.437Z,16.05
2023-02-05T19:12:41.921Z,14.43
2023-02-05T19:15:10.968Z,18.98
2023-02-05T19:17:41.103Z,17.75
2023-02-05T19:20:10.466Z,17.65
2023-02-05T19:22:39.868Z,15.45
2023-02-05T19:25:09.087Z,17.88
2023-02-05T19:27:37.673Z,18.00
2023-02-05T19:30:06.955Z,15.98
2023-02-05T19:32:36.024Z,17.48
2023-02-05T19:35:06.218Z,21.02
2023-02-05T19:37:34.769Z,15.95
2023-02-05T19:40:03.311Z,14.07
2023-02-05T19:42:31.832Z,17.52
2023-02-05T19:45:00.469Z,17.90
2023-02-05T19:47:29.242Z,15.32
2023-02-05T19:49:57.854Z,14.77
2023-02-05T19:52:27.770Z,19.02
2023-02-05T19:54:56.266Z,13.93
2023-02-05T19:57:24.994Z,23.73
2023-02-05T19:59:53.472Z,9.70
2023-02-05T20:02:22.609Z,15.25
2023-02-05T20:04:51.215Z,15.27
2023-02-05T20:07:19.850Z,19.10
2023-02-05T20:09:50.488Z,12.88
2023-02-05T20:12:19.008Z,12.45
2023-02-05T20:14:47.520Z,22.42
2023-02-05T20:17:17.702Z,18.10
2023-02-05T20:19:46.392Z,14.68
2023-02-05T20:22:15.128Z,13.50
2023-02-05T20:24:43.708Z,16.83
2023-02-05T20:27:13.590Z,14.73
2023-02-05T20:30:08.079Z,15.07
2023-02-05T20:32:36.775Z,16.60
2023-02-05T20:35:05.790Z,15.45
2023-02-05T20:37:36.814Z,22.02
2023-02-05T20:40:05.586Z,24.95
2023-02-05T20:42:35.501Z,14.50
2023-02-05T20:45:04.087Z,20.83
2023-02-05T20:47:33.839Z,16.02
2023-02-05T20:50:02.443Z,16.73
2023-02-05T20:52:31.238Z,17.70
2023-02-05T20:54:59.850Z,25.85
2023-02-05T20:57:28.487Z,21.90
2023-02-05T20:59:58.476Z,14.18
2023-02-05T21:02:27.953Z,18.25
2023-02-05T21:04:56.551Z,20.83
2023-02-05T21:07:29.515Z,20.10
2023-02-05T21:10:01.912Z,19.40
2023-02-05T21:12:32.314Z,12.82
2023-02-05T21:15:02.344Z,28.05
2023-02-05T21:17:49.220Z,13.73
2023-02-05T21:20:36.724Z,19.33
2023-02-05T21:23:23.882Z,12.48
2023-02-05T21:26:19.144Z,15.65
2023-02-05T21:29:07.792Z,14.35
2023-02-05T21:31:56.436Z,14.15
2023-02-05T21:34:43.836Z,21.70
2023-02-05T21:37:31.324Z,16.27
2023-02-05T21:40:19.228Z,12.38
2023-02-05T21:43:06.505Z,14.20
2023-02-05T21:45:53.695Z,13.45
2023-02-05T21:48:42.693Z,13.27
2023-02-05T21:51:32.100Z,13.77
2023-02-05T21:54:20.784Z,14.45
2023-02-05T21:57:08.360Z,21.70
2023-02-05T21:59:55.676Z,11.45
2023-02-05T22:02:42.753Z,16.23
2023-02-05T22:05:30.900Z,13.07
2023-02-05T22:08:18.261Z,14.38
2023-02-05T22:11:07.797Z,15.02
2023-02-05T22:13:57.271Z,10.20
2023-02-05T22:16:44.712Z,14.75
2023-02-05T22:19:32.034Z,14.15
2023-02-05T22:22:20.360Z,9.75
2023-02-05T22:25:08.417Z,8.18
2023-02-05T22:27:55.744Z,15.10
2023-02-05T22:30:42.965Z,9.05
2023-02-05T22:33:31.330Z,10.80
2023-02-05T22:36:20.535Z,14.05
2023-02-05T22:39:09.032Z,10.18
2023-02-05T22:41:56.047Z,10.45
2023-02-05T22:44:43.062Z,10.50
2023-02-05T22:47:30.282Z,13.93
2023-02-05T22:50:17.990Z,12.50
2023-02-05T22:53:05.180Z,18.40
2023-02-05T22:55:37.289Z,10.18
2023-02-05T22:58:06.980Z,12.82
2023-02-05T23:00:35.847Z,11.93
2023-02-05T23:03:04.486Z,13.82
2023-02-05T23:05:34.528Z,21.08
2023-02-05T23:08:03.305Z,20.63
2023-02-05T23:10:31.933Z,14.60
2023-02-05T23:13:01.920Z,18.30
2023-02-05T23:15:30.653Z,13.18
2023-02-05T23:17:59.710Z,15.05
2023-02-05T23:20:28.735Z,10.82
2023-02-05T23:22:57.645Z,18.45
2023-02-05T23:25:26.220Z,14.20
2023-02-05T23:27:54.873Z,14.63
2023-02-05T23:30:24.824Z,12.27
2023-02-05T23:32:54.163Z,13.07
2023-02-05T23:35:22.725Z,12.60
2023-02-05T23:37:51.315Z,14.77
2023-02-05T23:40:20.539Z,13.27
2023-02-05T23:42:49.143Z,9.57
2023-02-05T23:45:18.003Z,16.13
2023-02-05T23:47:47.863Z,20.40
2023-02-05T23:50:16.790Z,13.75
2023-02-05T23:52:45.381Z,13.27
2023-02-05T23:55:13.879Z,17.90
2023-02-05T23:57:42.495Z,14.38
